createdAt,value
2016-08-18T00:00:25.941Z,17.46
2016-08-18T00:01:26.640Z,17.4
2016-08-18T00:02:25.922Z,17.34
2016-08-18T00:03:26.618Z,17.52
2016-08-18T00:04:25.881Z,17.4
2016-08-18T00:05:26.590Z,17.44
2016-08-18T00:06:25.849Z,17.4
2016-08-18T00:07:26.561Z,17.4
2016-08-18T00:08:25.820Z,17.46
2016-08-18T00:09:26.524Z,17.44
2016-08-18T00:10:26.519Z,17.46
2016-08-18T00:11:26.505Z,17.45
2016-08-18T00:12:26.475Z,17.44
2016-08-18T00:13:26.463Z,17.36
2016-08-18T00:14:26.456Z,17.36
2016-08-18T00:15:26.445Z,17.3
2016-08-18T00:16:25.720Z,17.29
2016-08-18T00:17:26.405Z,17.29
2016-08-18T00:18:26.394Z,17.21
2016-08-18T00:19:26.398Z,17.21
2016-08-18T00:20:26.364Z,17.15
2016-08-18T00:21:25.648Z,17.21
2016-08-18T00:22:26.362Z,17.24
2016-08-18T00:23:26.331Z,17.16
2016-08-18T00:24:24.877Z,17.19
2016-08-18T00:25:26.384Z,17.21
2016-08-18T00:26:26.278Z,17.19
2016-08-18T00:27:26.281Z,17.08
2016-08-18T00:28:25.551Z,17.12
2016-08-18T00:29:25.524Z,17.03
2016-08-18T00:30:26.230Z,17.06
2016-08-18T00:31:25.534Z,17.09
2016-08-18T00:32:25.484Z,17.12
2016-08-18T00:33:26.269Z,17.15
2016-08-18T00:34:25.456Z,17.16
2016-08-18T00:35:25.448Z,17.08
2016-08-18T00:36:25.426Z,17.06
2016-08-18T00:37:26.138Z,17.06
2016-08-18T00:38:26.113Z,17
2016-08-18T00:39:25.468Z,17.08
2016-08-18T00:40:26.077Z,16.93
2016-08-18T00:41:26.078Z,16.91
2016-08-18T00:42:26.067Z,16.97
2016-08-18T00:43:25.331Z,17.01
2016-08-18T00:44:25.320Z,17.03
2016-08-18T00:45:26.039Z,17.06
2016-08-18T00:46:25.998Z,16.93
2016-08-18T00:47:26.010Z,16.9
2016-08-18T00:48:25.245Z,16.91
2016-08-18T00:49:25.258Z,16.93
2016-08-18T00:50:25.937Z,16.89
2016-08-18T00:51:25.945Z,16.87
2016-08-18T00:52:25.922Z,16.85
2016-08-18T00:53:25.931Z,16.87
2016-08-18T00:54:25.880Z,16.91
2016-08-18T00:55:25.154Z,16.91
2016-08-18T00:56:25.863Z,16.87
2016-08-18T00:57:25.121Z,16.87
2016-08-18T00:58:25.117Z,16.76
2016-08-18T00:59:25.094Z,16.71
2016-08-18T01:00:25.091Z,16.74
2016-08-18T01:01:25.075Z,16.75
2016-08-18T01:02:25.767Z,16.68
2016-08-18T01:03:25.038Z,16.63
2016-08-18T01:04:25.094Z,16.78
2016-08-18T01:05:25.740Z,16.57
2016-08-18T01:06:24.994Z,16.58
2016-08-18T01:07:24.982Z,16.61
2016-08-18T01:08:25.677Z,16.75
2016-08-18T01:09:24.976Z,16.64
2016-08-18T01:10:25.657Z,16.63
2016-08-18T01:11:25.637Z,16.6
2016-08-18T01:12:25.619Z,16.56
2016-08-18T01:13:25.613Z,16.53
2016-08-18T01:14:25.589Z,16.6
2016-08-18T01:15:25.671Z,16.72
2016-08-18T01:16:25.557Z,16.61
2016-08-18T01:17:25.546Z,16.58
2016-08-18T01:18:25.535Z,16.63
2016-08-18T01:19:25.528Z,16.57
2016-08-18T01:20:25.512Z,16.54
2016-08-18T01:21:25.519Z,16.54
2016-08-18T01:22:25.482Z,16.46
2016-08-18T01:23:24.738Z,16.57
2016-08-18T01:24:25.451Z,16.6
2016-08-18T01:25:25.425Z,16.54
2016-08-18T01:26:24.697Z,16.41
2016-08-18T01:27:25.406Z,16.41
2016-08-18T01:28:25.409Z,16.53
2016-08-18T01:29:25.437Z,16.5
2016-08-18T01:30:25.355Z,16.43
2016-08-18T01:31:25.410Z,16.48
2016-08-18T01:32:25.340Z,16.53
2016-08-18T01:33:25.312Z,16.53
2016-08-18T01:34:25.301Z,16.38
2016-08-18T01:35:24.560Z,16.35
2016-08-18T01:36:24.554Z,16.35
2016-08-18T01:37:24.543Z,16.39
2016-08-18T01:38:25.233Z,16.26
2016-08-18T01:39:24.517Z,16.36
2016-08-18T01:40:24.494Z,16.41
2016-08-18T01:41:25.209Z,16.41
2016-08-18T01:42:25.175Z,16.27
2016-08-18T01:43:25.167Z,16.28
2016-08-18T01:44:25.149Z,16.27
2016-08-18T01:45:25.146Z,16.23
2016-08-18T01:46:25.138Z,16.17
2016-08-18T01:47:25.104Z,16.21
2016-08-18T01:48:25.088Z,16.1
2016-08-18T01:49:25.110Z,16.2
2016-08-18T01:50:25.069Z,16.21
2016-08-18T01:51:24.327Z,16.15
2016-08-18T01:52:25.038Z,16.26
2016-08-18T01:53:24.305Z,16.15
2016-08-18T01:54:24.301Z,16.24
2016-08-18T01:55:24.995Z,16.17
2016-08-18T01:56:24.981Z,16.23
2016-08-18T01:57:24.969Z,16.13
2016-08-18T01:58:24.945Z,16.24
2016-08-18T01:59:24.921Z,16.15
2016-08-18T02:00:24.914Z,16.02
2016-08-18T02:01:24.890Z,16.07
2016-08-18T02:02:24.259Z,16.12
2016-08-18T02:03:24.859Z,16.17
2016-08-18T02:04:24.855Z,16.21
2016-08-18T02:05:24.842Z,16.27
2016-08-18T02:06:24.884Z,16.24
2016-08-18T02:07:24.093Z,16.16
2016-08-18T02:08:24.795Z,16.13
2016-08-18T02:09:25.603Z,16.07
2016-08-18T02:10:24.826Z,16.04
2016-08-18T02:11:24.738Z,16.02
2016-08-18T02:12:24.811Z,16.02
2016-08-18T02:13:24.749Z,16.05
2016-08-18T02:14:24.035Z,16.08
2016-08-18T02:15:24.693Z,16.01
2016-08-18T02:16:24.725Z,15.97
2016-08-18T02:17:24.671Z,15.98
2016-08-18T02:18:24.687Z,15.83
2016-08-18T02:19:24.630Z,15.72
2016-08-18T02:20:24.686Z,15.83
2016-08-18T02:21:24.594Z,15.83
2016-08-18T02:22:24.634Z,15.76
2016-08-18T02:23:23.849Z,15.72
2016-08-18T02:24:23.970Z,15.82
2016-08-18T02:25:24.543Z,15.79
2016-08-18T02:26:24.563Z,15.76
2016-08-18T02:27:24.520Z,15.75
2016-08-18T02:28:24.505Z,15.76
2016-08-18T02:29:24.473Z,15.75
2016-08-18T02:30:24.466Z,15.68
2016-08-18T02:31:24.449Z,15.72
2016-08-18T02:32:24.442Z,15.71
2016-08-18T02:33:24.415Z,15.79
2016-08-18T02:34:23.692Z,15.8
2016-08-18T02:35:24.385Z,15.75
2016-08-18T02:36:23.746Z,15.71
2016-08-18T02:37:24.353Z,15.79
2016-08-18T02:38:24.343Z,15.5
2016-08-18T02:39:23.619Z,15.52
2016-08-18T02:40:24.316Z,15.42
2016-08-18T02:41:24.299Z,15.42
2016-08-18T02:42:24.303Z,15.46
2016-08-18T02:43:23.552Z,15.5
2016-08-18T02:44:24.278Z,15.44
2016-08-18T02:45:23.524Z,15.53
2016-08-18T02:46:22.858Z,15.5
2016-08-18T02:47:23.493Z,15.6
2016-08-18T02:48:23.474Z,15.5
2016-08-18T02:49:24.170Z,15.43
2016-08-18T02:50:23.453Z,15.58
2016-08-18T02:51:24.134Z,15.54
2016-08-18T02:52:23.419Z,15.62
2016-08-18T02:53:24.124Z,15.52
2016-08-18T02:54:24.143Z,15.54
2016-08-18T02:55:23.359Z,15.43
2016-08-18T02:56:24.120Z,15.53
2016-08-18T02:57:24.065Z,15.47
2016-08-18T02:58:24.050Z,15.5
2016-08-18T02:59:23.308Z,15.28
2016-08-18T03:00:23.995Z,15.42
2016-08-18T03:01:23.995Z,15.5
2016-08-18T03:02:23.994Z,15.47
2016-08-18T03:03:23.963Z,15.4
2016-08-18T03:04:23.947Z,15.32
2016-08-18T03:05:23.935Z,15.29
2016-08-18T03:06:23.914Z,15.34
2016-08-18T03:07:23.910Z,15.32
2016-08-18T03:08:24.065Z,15.39
2016-08-18T03:09:23.866Z,15.39
2016-08-18T03:10:23.846Z,15.43
2016-08-18T03:11:23.136Z,15.46
2016-08-18T03:12:23.825Z,15.35
2016-08-18T03:13:23.836Z,15.25
2016-08-18T03:14:23.789Z,15.25
2016-08-18T03:15:23.799Z,15.31
2016-08-18T03:16:23.048Z,15.22
2016-08-18T03:17:23.022Z,15.25
2016-08-18T03:18:23.733Z,15.25
2016-08-18T03:19:23.718Z,15.25
2016-08-18T03:20:22.259Z,15.28
2016-08-18T03:21:23.679Z,15.16
2016-08-18T03:22:23.678Z,15.24
2016-08-18T03:23:23.659Z,15.24
2016-08-18T03:24:23.636Z,15.2
2016-08-18T03:25:23.618Z,15.21
2016-08-18T03:26:22.901Z,15.17
2016-08-18T03:27:23.593Z,15.17
2016-08-18T03:28:23.583Z,15.22
2016-08-18T03:29:22.845Z,15.14
2016-08-18T03:30:23.544Z,15.1
2016-08-18T03:31:23.519Z,15.2
2016-08-18T03:32:22.800Z,15.14
2016-08-18T03:33:23.492Z,14.92
2016-08-18T03:34:23.509Z,14.8
2016-08-18T03:35:23.464Z,15.04
2016-08-18T03:36:22.739Z,15.02
2016-08-18T03:37:23.448Z,15.02
2016-08-18T03:38:23.429Z,15.1
2016-08-18T03:39:23.395Z,15.06
2016-08-18T03:40:23.392Z,15.03
2016-08-18T03:41:23.373Z,14.96
2016-08-18T03:42:23.349Z,14.98
2016-08-18T03:43:23.350Z,14.95
2016-08-18T03:44:23.319Z,15.07
2016-08-18T03:45:23.306Z,15.07
2016-08-18T03:46:23.288Z,15.07
2016-08-18T03:47:23.276Z,14.98
2016-08-18T03:48:23.265Z,14.96
2016-08-18T03:49:23.243Z,15.03
2016-08-18T03:50:23.229Z,14.92
2016-08-18T03:51:23.217Z,14.95
2016-08-18T03:52:23.193Z,15
2016-08-18T03:53:23.183Z,15.02
2016-08-18T03:54:23.163Z,14.92
2016-08-18T03:55:23.154Z,14.94
2016-08-18T03:56:22.410Z,15.02
2016-08-18T03:57:23.123Z,14.84
2016-08-18T03:58:23.124Z,14.89
2016-08-18T03:59:23.095Z,14.88
2016-08-18T04:00:22.360Z,14.88
2016-08-18T04:01:23.049Z,14.85
2016-08-18T04:02:23.039Z,14.84
2016-08-18T04:03:23.029Z,14.91
2016-08-18T04:04:23.021Z,14.77
2016-08-18T04:05:22.996Z,14.7
2016-08-18T04:06:22.980Z,14.73
2016-08-18T04:07:22.963Z,14.82
2016-08-18T04:08:22.939Z,14.88
2016-08-18T04:09:22.944Z,14.82
2016-08-18T04:10:22.194Z,14.82
2016-08-18T04:11:22.974Z,14.84
2016-08-18T04:12:22.179Z,14.88
2016-08-18T04:13:22.959Z,14.88
2016-08-18T04:14:22.847Z,14.89
2016-08-18T04:15:22.846Z,14.91
2016-08-18T04:16:22.820Z,14.87
2016-08-18T04:17:22.809Z,14.84
2016-08-18T04:18:22.786Z,14.87
2016-08-18T04:19:22.816Z,14.88
2016-08-18T04:20:22.756Z,14.85
2016-08-18T04:21:22.736Z,14.88
2016-08-18T04:22:22.725Z,14.82
2016-08-18T04:23:22.056Z,14.84
2016-08-18T04:24:22.686Z,14.94
2016-08-18T04:25:22.697Z,14.85
2016-08-18T04:26:22.658Z,14.88
2016-08-18T04:27:22.659Z,14.89
2016-08-18T04:28:22.625Z,14.88
2016-08-18T04:29:21.893Z,14.8
2016-08-18T04:30:22.595Z,14.7
2016-08-18T04:31:22.590Z,14.73
2016-08-18T04:32:22.569Z,14.8
2016-08-18T04:33:22.562Z,14.75
2016-08-18T04:34:21.809Z,14.85
2016-08-18T04:35:22.547Z,14.72
2016-08-18T04:36:22.507Z,14.72
2016-08-18T04:37:22.494Z,14.72
2016-08-18T04:38:22.469Z,14.73
2016-08-18T04:39:22.468Z,14.85
2016-08-18T04:40:22.444Z,14.79
2016-08-18T04:41:22.455Z,14.7
2016-08-18T04:42:21.697Z,14.85
2016-08-18T04:43:22.382Z,14.75
2016-08-18T04:44:22.370Z,14.73
2016-08-18T04:45:22.360Z,14.82
2016-08-18T04:46:22.339Z,14.88
2016-08-18T04:47:22.325Z,14.72
2016-08-18T04:48:22.318Z,14.69
2016-08-18T04:49:22.400Z,14.85
2016-08-18T04:50:22.287Z,14.82
2016-08-18T04:51:22.314Z,14.72
2016-08-18T04:52:21.528Z,14.63
2016-08-18T04:53:22.234Z,14.66
2016-08-18T04:54:22.217Z,14.66
2016-08-18T04:55:22.204Z,14.75
2016-08-18T04:56:22.182Z,14.66
2016-08-18T04:57:22.160Z,14.69
2016-08-18T04:58:22.148Z,14.68
2016-08-18T04:59:21.417Z,14.65
2016-08-18T05:00:21.419Z,14.72
2016-08-18T05:01:22.109Z,14.73
2016-08-18T05:02:22.091Z,14.7
2016-08-18T05:03:22.123Z,14.8
2016-08-18T05:04:22.053Z,14.72
2016-08-18T05:05:21.335Z,14.72
2016-08-18T05:06:22.036Z,14.87
2016-08-18T05:07:22.014Z,14.84
2016-08-18T05:08:21.266Z,14.82
2016-08-18T05:09:22.039Z,14.87
2016-08-18T05:10:21.240Z,14.84
2016-08-18T05:11:21.225Z,14.8
2016-08-18T05:12:21.919Z,14.87
2016-08-18T05:13:21.967Z,14.89
2016-08-18T05:14:21.189Z,15
2016-08-18T05:15:21.883Z,14.94
2016-08-18T05:16:21.869Z,15.03
2016-08-18T05:17:21.136Z,15.12
2016-08-18T05:18:21.111Z,15.06
2016-08-18T05:19:21.868Z,14.92
2016-08-18T05:20:21.806Z,15.09
2016-08-18T05:21:20.366Z,14.96
2016-08-18T05:22:21.775Z,14.92
2016-08-18T05:23:21.752Z,15.07
2016-08-18T05:24:21.738Z,15.12
2016-08-18T05:25:21.019Z,15.1
2016-08-18T05:26:20.991Z,15.12
2016-08-18T05:27:21.689Z,15.1
2016-08-18T05:28:20.970Z,15.1
2016-08-18T05:29:21.679Z,15.17
2016-08-18T05:30:21.655Z,15.1
2016-08-18T05:31:20.913Z,15.1
2016-08-18T05:32:21.613Z,15.2
2016-08-18T05:33:20.905Z,15.06
2016-08-18T05:34:21.589Z,15.12
2016-08-18T05:35:20.858Z,15.12
2016-08-18T05:36:21.545Z,15.21
2016-08-18T05:37:21.559Z,15.22
2016-08-18T05:38:21.520Z,15.27
2016-08-18T05:39:21.509Z,15.37
2016-08-18T05:40:20.772Z,15.32
2016-08-18T05:41:21.487Z,15.39
2016-08-18T05:42:21.450Z,15.34
2016-08-18T05:43:21.440Z,15.4
2016-08-18T05:44:21.419Z,15.4
2016-08-18T05:45:20.695Z,15.49
2016-08-18T05:46:21.396Z,15.5
2016-08-18T05:47:21.396Z,15.5
2016-08-18T05:48:20.651Z,15.53
2016-08-18T05:49:20.632Z,15.47
2016-08-18T05:50:21.337Z,15.43
2016-08-18T05:51:21.329Z,15.52
2016-08-18T05:52:21.297Z,15.43
2016-08-18T05:53:21.386Z,15.6
2016-08-18T05:54:20.556Z,15.58
2016-08-18T05:55:21.267Z,15.54
2016-08-18T05:56:20.538Z,15.54
2016-08-18T05:57:21.232Z,15.65
2016-08-18T05:58:21.210Z,15.67
2016-08-18T05:59:21.210Z,15.76
2016-08-18T06:00:21.182Z,15.75
2016-08-18T06:01:21.169Z,15.58
2016-08-18T06:02:20.446Z,15.6
2016-08-18T06:03:21.162Z,15.71
2016-08-18T06:04:21.106Z,15.65
2016-08-18T06:05:20.387Z,15.77
2016-08-18T06:06:20.374Z,15.85
2016-08-18T06:07:21.067Z,15.86
2016-08-18T06:08:20.356Z,15.9
2016-08-18T06:09:19.628Z,15.79
2016-08-18T06:10:19.647Z,15.85
2016-08-18T06:11:21.071Z,15.9
2016-08-18T06:12:20.999Z,15.9
2016-08-18T06:13:21.018Z,16.01
2016-08-18T06:14:20.964Z,16.07
2016-08-18T06:15:20.976Z,16.02
2016-08-18T06:16:20.936Z,16.16
2016-08-18T06:17:20.934Z,16.12
2016-08-18T06:18:20.915Z,16.32
2016-08-18T06:19:20.888Z,16.32
2016-08-18T06:20:20.161Z,16.35
2016-08-18T06:21:20.860Z,16.35
2016-08-18T06:22:20.861Z,16.45
2016-08-18T06:23:20.841Z,16.48
2016-08-18T06:24:20.815Z,16.56
2016-08-18T06:25:20.089Z,16.57
2016-08-18T06:26:20.784Z,16.58
2016-08-18T06:27:20.071Z,16.61
2016-08-18T06:28:20.043Z,16.74
2016-08-18T06:29:20.029Z,16.76
2016-08-18T06:30:20.218Z,16.78
2016-08-18T06:31:20.720Z,16.78
2016-08-18T06:32:19.986Z,16.63
2016-08-18T06:33:19.966Z,16.78
2016-08-18T06:34:19.227Z,16.83
2016-08-18T06:35:20.651Z,16.82
2016-08-18T06:36:20.644Z,16.87
2016-08-18T06:37:20.621Z,16.81
2016-08-18T06:38:19.886Z,16.93
2016-08-18T06:39:20.587Z,16.96
2016-08-18T06:40:19.908Z,16.94
2016-08-18T06:41:20.556Z,16.96
2016-08-18T06:42:20.578Z,16.97
2016-08-18T06:43:20.528Z,17.01
2016-08-18T06:44:20.548Z,17.05
2016-08-18T06:45:19.936Z,17.08
2016-08-18T06:46:20.495Z,17.21
2016-08-18T06:47:20.832Z,17.22
2016-08-18T06:48:20.543Z,17.33
2016-08-18T06:49:20.446Z,17.33
2016-08-18T06:50:20.492Z,17.39
2016-08-18T06:51:19.706Z,17.51
2016-08-18T06:52:20.489Z,17.62
2016-08-18T06:53:19.682Z,17.65
2016-08-18T06:54:20.385Z,17.64
2016-08-18T06:55:20.390Z,17.67
2016-08-18T06:56:20.417Z,17.7
2016-08-18T06:57:20.326Z,17.72
2016-08-18T06:58:20.323Z,17.72
2016-08-18T06:59:19.588Z,17.92
2016-08-18T07:00:20.304Z,18.02
2016-08-18T07:01:20.287Z,17.93
2016-08-18T07:02:20.300Z,18.02
2016-08-18T07:03:19.526Z,18.01
2016-08-18T07:04:19.522Z,18.14
2016-08-18T07:05:20.345Z,18.3
2016-08-18T07:06:20.244Z,18.35
2016-08-18T07:07:19.483Z,18.44
2016-08-18T07:08:20.174Z,18.45
2016-08-18T07:09:18.725Z,18.58
2016-08-18T07:10:19.438Z,18.63
2016-08-18T07:11:20.312Z,18.7
2016-08-18T07:12:20.130Z,18.88
2016-08-18T07:13:19.385Z,19.07
2016-08-18T07:14:20.141Z,19.07
2016-08-18T07:15:19.368Z,19.15
2016-08-18T07:16:20.125Z,19.25
2016-08-18T07:17:20.062Z,19.55
2016-08-18T07:18:19.338Z,19.77
2016-08-18T07:19:19.331Z,20.22
2016-08-18T07:20:19.431Z,20.4
2016-08-18T07:21:19.995Z,20.69
2016-08-18T07:22:20.057Z,21.07
2016-08-18T07:23:19.995Z,21.5
2016-08-18T07:24:20.021Z,21.74
2016-08-18T07:25:19.396Z,22.7
2016-08-18T07:26:20.005Z,23.75
2016-08-18T07:27:19.229Z,24.81
2016-08-18T07:28:19.934Z,25.71
2016-08-18T07:29:19.937Z,26.76
2016-08-18T07:30:19.947Z,27.23
2016-08-18T07:31:19.920Z,26.82
2016-08-18T07:32:19.228Z,27.06
2016-08-18T07:33:19.193Z,27.19
2016-08-18T07:34:19.953Z,27.69
2016-08-18T07:35:19.902Z,27.88
2016-08-18T07:36:19.919Z,28.06
2016-08-18T07:37:19.175Z,28.37
2016-08-18T07:38:19.873Z,28.65
2016-08-18T07:39:19.151Z,28.31
2016-08-18T07:40:19.278Z,28.67
2016-08-18T07:41:19.897Z,28.28
2016-08-18T07:42:19.864Z,28.47
2016-08-18T07:43:19.868Z,28.52
2016-08-18T07:44:19.857Z,28.87
2016-08-18T07:45:18.553Z,29.06
2016-08-18T07:46:19.202Z,29.14
2016-08-18T07:47:19.856Z,29.47
2016-08-18T07:48:19.847Z,29.15
2016-08-18T07:49:19.202Z,28.98
2016-08-18T07:50:19.147Z,29.14
2016-08-18T07:51:20.606Z,29.25
2016-08-18T07:52:19.851Z,29.35
2016-08-18T07:53:19.875Z,29.21
2016-08-18T07:54:19.130Z,29.24
2016-08-18T07:55:19.850Z,29.2
2016-08-18T07:56:19.846Z,29.47
2016-08-18T07:57:19.896Z,29.59
2016-08-18T07:58:19.126Z,29.61
2016-08-18T07:59:19.853Z,29.46
2016-08-18T08:00:19.956Z,29.8
2016-08-18T08:01:19.888Z,30.14
2016-08-18T08:02:19.851Z,30.08
2016-08-18T08:03:19.140Z,30.26
2016-08-18T08:04:19.858Z,30.63
2016-08-18T08:05:19.277Z,30.45
2016-08-18T08:06:19.855Z,30.77
2016-08-18T08:07:19.853Z,30.93
2016-08-18T08:08:19.140Z,30.64
2016-08-18T08:09:19.862Z,31
2016-08-18T08:10:19.865Z,31.07
2016-08-18T08:11:19.876Z,31.25
2016-08-18T08:12:19.869Z,31.1
2016-08-18T08:13:19.187Z,31.29
2016-08-18T08:14:19.894Z,31.32
2016-08-18T08:15:19.172Z,31.26
2016-08-18T08:16:19.196Z,31.47
2016-08-18T08:17:19.897Z,31.64
2016-08-18T08:18:19.886Z,31.81
2016-08-18T08:19:19.899Z,31.76
2016-08-18T08:20:19.373Z,31.9
2016-08-18T08:21:19.218Z,32.2
2016-08-18T08:22:19.896Z,32.12
2016-08-18T08:23:19.908Z,32.13
2016-08-18T08:24:19.947Z,31.97
2016-08-18T08:25:22.174Z,31.87
2016-08-18T08:26:19.996Z,31.79
2016-08-18T08:27:19.229Z,31.7
2016-08-18T08:28:19.931Z,31.79
2016-08-18T08:29:19.202Z,31.57
2016-08-18T08:30:19.216Z,31.62
2016-08-18T08:31:19.955Z,31.87
2016-08-18T08:32:19.235Z,32.12
2016-08-18T08:33:19.231Z,32.13
2016-08-18T08:34:19.262Z,32.26
2016-08-18T08:35:22.604Z,32.08
2016-08-18T08:36:19.975Z,32.27
2016-08-18T08:37:19.266Z,31.94
2016-08-18T08:38:19.976Z,32.17
2016-08-18T08:39:19.326Z,31.9
2016-08-18T08:40:20.697Z,31.9
2016-08-18T08:41:19.269Z,32.09
2016-08-18T08:42:19.281Z,31.9
2016-08-18T08:43:18.554Z,32.09
2016-08-18T08:44:19.284Z,32.17
2016-08-18T08:45:19.291Z,32.26
2016-08-18T08:46:20.004Z,32.48
2016-08-18T08:47:19.291Z,32.72
2016-08-18T08:48:20.018Z,32.08
2016-08-18T08:49:20.026Z,31.81
2016-08-18T08:50:21.222Z,32.02
2016-08-18T08:51:20.042Z,32.23
2016-08-18T08:52:20.048Z,32.26
2016-08-18T08:53:19.356Z,32.36
2016-08-18T08:54:20.072Z,32.5
2016-08-18T08:55:20.060Z,31.92
2016-08-18T08:56:19.802Z,31.92
2016-08-18T08:57:20.320Z,31.22
2016-08-18T08:58:19.960Z,31.64
2016-08-18T08:59:20.241Z,31.74
2016-08-18T09:00:20.069Z,32.05
2016-08-18T09:01:19.469Z,32.41
2016-08-18T09:02:19.389Z,32.54
2016-08-18T09:03:19.381Z,32.47
2016-08-18T09:04:20.114Z,32.51
2016-08-18T09:05:19.396Z,32.72
2016-08-18T09:06:20.105Z,32.51
2016-08-18T09:07:19.397Z,32.5
2016-08-18T09:08:19.411Z,32.41
2016-08-18T09:09:19.449Z,32.57
2016-08-18T09:10:20.277Z,32.42
2016-08-18T09:11:18.694Z,32.34
2016-08-18T09:12:20.141Z,32.78
2016-08-18T09:13:20.140Z,32.6
2016-08-18T09:14:20.138Z,33.03
2016-08-18T09:15:20.244Z,32.95
2016-08-18T09:16:20.151Z,31.86
2016-08-18T09:17:19.457Z,32.21
2016-08-18T09:18:20.166Z,32.29
2016-08-18T09:19:19.460Z,32.48
2016-08-18T09:20:20.027Z,32.27
2016-08-18T09:21:18.752Z,32.21
2016-08-18T09:22:19.464Z,32.13
2016-08-18T09:23:20.269Z,32.08
2016-08-18T09:24:18.847Z,32.23
2016-08-18T09:25:20.781Z,32.19
2016-08-18T09:26:20.218Z,32.43
2016-08-18T09:27:20.271Z,32.9
2016-08-18T09:28:18.800Z,32.84
2016-08-18T09:29:20.306Z,32.82
2016-08-18T09:30:20.862Z,31.57
2016-08-18T09:31:18.798Z,31.11
2016-08-18T09:32:18.818Z,30.08
2016-08-18T09:33:19.628Z,30.78
2016-08-18T09:34:19.274Z,31.52
2016-08-18T09:35:21.244Z,31.89
2016-08-18T09:36:21.009Z,31.75
2016-08-18T09:37:21.784Z,32.08
2016-08-18T09:38:20.283Z,32.02
2016-08-18T09:39:20.258Z,32.09
2016-08-18T09:40:20.020Z,32.38
2016-08-18T09:41:20.290Z,32.75
2016-08-18T09:42:20.339Z,32.66
2016-08-18T09:43:19.576Z,32.12
2016-08-18T09:44:20.314Z,31.92
2016-08-18T09:45:20.855Z,32.27
2016-08-18T09:46:19.587Z,32.61
2016-08-18T09:47:20.294Z,32.84
2016-08-18T09:48:20.308Z,33.16
2016-08-18T09:49:20.298Z,33.21
2016-08-18T09:50:21.421Z,33.51
2016-08-18T09:51:20.320Z,33.3
2016-08-18T09:52:19.610Z,33.36
2016-08-18T09:53:20.310Z,33.54
2016-08-18T09:54:19.620Z,33.17
2016-08-18T09:55:21.001Z,33.28
2016-08-18T09:56:19.621Z,32.9
2016-08-18T09:57:19.660Z,33.22
2016-08-18T09:58:18.934Z,33.14
2016-08-18T09:59:20.350Z,32.36
2016-08-18T10:00:19.685Z,32.47
2016-08-18T10:01:20.361Z,33.1
2016-08-18T10:02:20.379Z,33.37
2016-08-18T10:03:19.638Z,33.48
2016-08-18T10:04:19.645Z,33.52
2016-08-18T10:05:21.750Z,33.55
2016-08-18T10:06:19.640Z,33.67
2016-08-18T10:07:20.447Z,32.64
2016-08-18T10:08:19.649Z,32.29
2016-08-18T10:09:20.370Z,32.48
2016-08-18T10:10:46.367Z,32.75
2016-08-18T10:11:20.356Z,31.89
2016-08-18T10:12:20.586Z,32.43
2016-08-18T10:13:19.656Z,32.02
2016-08-18T10:14:19.655Z,32.36
2016-08-18T10:15:20.368Z,31.29
2016-08-18T10:16:19.666Z,30.49
2016-08-18T10:17:20.366Z,30.66
2016-08-18T10:18:19.660Z,31.2
2016-08-18T10:19:19.645Z,31.6
2016-08-18T10:20:20.375Z,31.95
2016-08-18T10:21:20.363Z,31.52
2016-08-18T10:22:19.688Z,31.49
2016-08-18T10:23:19.645Z,30.63
2016-08-18T10:24:20.386Z,30.81
2016-08-18T10:25:20.097Z,30.63
2016-08-18T10:26:20.348Z,29.65
2016-08-18T10:27:20.347Z,28.9
2016-08-18T10:28:19.732Z,29.14
2016-08-18T10:29:20.365Z,29.15
2016-08-18T10:30:21.120Z,30.23
2016-08-18T10:31:20.360Z,30.74
2016-08-18T10:32:20.360Z,30.83
2016-08-18T10:33:20.340Z,30.95
2016-08-18T10:34:20.335Z,31.51
2016-08-18T10:35:19.616Z,31.98
2016-08-18T10:36:19.614Z,31.99
2016-08-18T10:37:19.608Z,30.4
2016-08-18T10:38:20.332Z,28.87
2016-08-18T10:39:19.605Z,29.54
2016-08-18T10:40:19.615Z,29.94
2016-08-18T10:41:19.646Z,30.74
2016-08-18T10:42:20.310Z,31.22
2016-08-18T10:43:18.877Z,30.82
2016-08-18T10:44:18.867Z,31.05
2016-08-18T10:45:20.388Z,31.54
2016-08-18T10:46:19.583Z,31.79
2016-08-18T10:47:20.321Z,31.11
2016-08-18T10:48:19.565Z,31.19
2016-08-18T10:49:20.280Z,31.11
2016-08-18T10:50:20.302Z,31.27
2016-08-18T10:51:20.339Z,31.82
2016-08-18T10:52:20.261Z,32.32
2016-08-18T10:53:20.298Z,32.35
2016-08-18T10:54:18.837Z,31.69
2016-08-18T10:55:20.578Z,31.23
2016-08-18T10:56:20.252Z,31.49
2016-08-18T10:57:20.267Z,31.7
2016-08-18T10:58:19.550Z,31.9
2016-08-18T10:59:19.524Z,32.14
2016-08-18T11:00:20.269Z,32.14
2016-08-18T11:01:19.534Z,32.31
2016-08-18T11:02:20.231Z,32.16
2016-08-18T11:03:19.529Z,32.41
2016-08-18T11:04:19.498Z,31.79
2016-08-18T11:05:20.294Z,32.04
2016-08-18T11:06:19.506Z,32.27
2016-08-18T11:07:20.220Z,32.43
2016-08-18T11:08:19.554Z,32.34
2016-08-18T11:09:19.511Z,32.6
2016-08-18T11:10:19.496Z,32.54
2016-08-18T11:11:18.762Z,32.45
2016-08-18T11:12:19.478Z,32.8
2016-08-18T11:13:20.205Z,32.78
2016-08-18T11:14:20.186Z,32.79
2016-08-18T11:15:19.482Z,32.76
2016-08-18T11:16:20.186Z,32.58
2016-08-18T11:17:20.168Z,32.63
2016-08-18T11:18:19.464Z,32.58
2016-08-18T11:19:19.480Z,32.75
2016-08-18T11:20:20.542Z,32.57
2016-08-18T11:21:20.174Z,32.54
2016-08-18T11:22:19.449Z,32.45
2016-08-18T11:23:20.159Z,31.76
2016-08-18T11:24:19.446Z,31.98
2016-08-18T11:25:19.450Z,32.2
2016-08-18T11:26:20.175Z,32.48
2016-08-18T11:27:20.143Z,32.39
2016-08-18T11:28:20.145Z,32.58
2016-08-18T11:29:19.428Z,32.36
2016-08-18T11:30:20.183Z,32.56
2016-08-18T11:31:20.123Z,32.45
2016-08-18T11:32:19.418Z,32.2
2016-08-18T11:33:20.157Z,32.29
2016-08-18T11:34:19.498Z,32.5
2016-08-18T11:35:19.646Z,32.58
2016-08-18T11:36:20.132Z,32.78
2016-08-18T11:37:20.098Z,32.87
2016-08-18T11:38:20.099Z,32.88
2016-08-18T11:39:20.104Z,32.51
2016-08-18T11:40:20.570Z,32.57
2016-08-18T11:41:20.102Z,32.78
2016-08-18T11:42:20.088Z,32.47
2016-08-18T11:43:20.092Z,32.73
2016-08-18T11:44:19.518Z,32.79
2016-08-18T11:45:20.088Z,32.8
2016-08-18T11:46:20.078Z,32.69
2016-08-18T11:47:19.550Z,32.43
2016-08-18T11:48:18.688Z,32.84
2016-08-18T11:49:18.689Z,32.63
2016-08-18T11:50:20.071Z,32.34
2016-08-18T11:51:20.064Z,32.16
2016-08-18T11:52:20.060Z,32.58
2016-08-18T11:53:20.136Z,32.7
2016-08-18T11:54:20.049Z,32.79
2016-08-18T11:55:20.794Z,32.87
2016-08-18T11:56:20.045Z,32.9
2016-08-18T12:11:59.168Z,33.1
2016-08-18T12:12:58.393Z,32.85
2016-08-18T12:13:58.412Z,32.87
2016-08-18T12:14:58.999Z,33
2016-08-18T12:15:59.768Z,32.53
2016-08-18T12:16:58.985Z,32.69
2016-08-18T12:17:59.714Z,32.61
2016-08-18T12:18:58.992Z,32.78
2016-08-18T12:19:59.075Z,32.92
2016-08-18T12:20:59.710Z,32.87
2016-08-18T12:21:59.710Z,32.6
2016-08-18T12:22:58.979Z,32.01
2016-08-18T12:23:58.982Z,32.07
2016-08-18T12:24:58.253Z,31.95
2016-08-18T12:25:59.686Z,31.92
2016-08-18T12:26:59.673Z,31.9
2016-08-18T12:27:58.958Z,32.04
2016-08-18T12:28:58.957Z,32.35
2016-08-18T12:29:59.654Z,32.47
2016-08-18T12:30:58.957Z,32.6
2016-08-18T12:31:58.947Z,32.84
2016-08-18T12:32:59.651Z,32.98
2016-08-18T12:33:59.649Z,32.47
2016-08-18T12:34:59.657Z,32.02
2016-08-18T12:35:58.924Z,32.07
2016-08-18T12:36:58.924Z,31.89
2016-08-18T12:37:58.209Z,32.24
2016-08-18T12:38:59.634Z,32.43
2016-08-18T12:39:58.187Z,32.56
2016-08-18T12:40:59.616Z,32.72
2016-08-18T12:41:59.619Z,32.78
2016-08-18T12:42:59.618Z,32.88
2016-08-18T12:43:59.612Z,32.88
2016-08-18T12:44:58.176Z,32.95
2016-08-18T12:45:59.600Z,32.61
2016-08-18T12:46:58.909Z,32.98
2016-08-18T12:47:58.884Z,32.94
2016-08-18T12:48:58.160Z,32.79
2016-08-18T12:49:58.875Z,32.75
2016-08-18T12:50:59.579Z,32.85
2016-08-18T12:51:59.582Z,32.91
2016-08-18T12:52:58.855Z,32.92
2016-08-18T12:53:59.569Z,32.5
2016-08-18T12:54:59.571Z,32.32
2016-08-18T12:55:59.563Z,32.61
2016-08-18T12:56:58.844Z,32.56
2016-08-18T12:57:58.935Z,32.53
2016-08-18T12:58:59.570Z,32.75
2016-08-18T12:59:58.845Z,32.75
2016-08-18T13:00:58.118Z,32.82
2016-08-18T13:01:58.832Z,32.48
2016-08-18T13:02:59.545Z,32.09
2016-08-18T13:03:59.535Z,32.04
2016-08-18T13:04:59.543Z,32.24
2016-08-18T13:05:59.526Z,32.14
2016-08-18T13:06:58.814Z,32.38
2016-08-18T13:07:58.799Z,32.5
2016-08-18T13:08:59.519Z,32.48
2016-08-18T13:09:59.516Z,32.35
2016-08-18T13:10:59.514Z,32.05